Racecast

Jonas Enriquez

Temperance Bedford (MI) · 12 · SECMI D1MONROE · Compare head to head

Athlete rating 109.5 2025 TF season
Best race 129.1 XC
Races 142
Seasons 8 2018 — 2025

RankedNation #56336·MI #2428·MI D1 #1369·SEC #120·Team #22 ?

Rating scale ?

Cross Country

2024 XC 108.3

Temperance Bedford (MI) · Grade 12

Date Meet Event Result Place Rating Difficulty PR/SR Flags
2024-10-26 Lake Erie Metro Park OFFICIAL 5000m 19:25.3 42nd · 5th on team 114.0 +0.055
2024-10-17 Hudson Mills Metropark - OFFICIAL 5000m 20:10.56 74th · 9th on team 108.1 +0.036 CSR
2024-10-12 Munson Park 5000m 19:53 37th · 9th on team 111.5 +0.054 CSR
2024-09-28 Lake Erie Metro Park OFFICIAL 5000m 18:47.4 8th · 4th on team 117.9 +0.055 SR CSR RSR
2024-09-24 Pioneer HS 5000m 19:56 28th · 3rd on team 112.7 +0.067 ★CR SR CSR RSR
2024-09-10 Willow Metropark OFFICIAL 5000m 20:18.3 25th · 2nd on team 108.9 +0.048 ★CR CSR RSR
2024-09-07 Hedges Boyer Park 5000m 20:15.5 190th · 8th on team 99.9 -0.036 SR CSR RSR
2024-08-31 BGSU 5000m 21:39.2 153rd · 14th on team 93.2 -0.038 SR CSR RSR

2023 XC 113.6

Temperance Bedford (MI) · Grade 11

Date Meet Event Result Place Rating Difficulty PR/SR Flags
2023-10-28 Lake Erie Metro Park OFFICIAL 5000m 18:18.4 26th · 6th on team 121.3 +0.055 ★CR CSR
2023-10-19 Hudson Mills Metropark - OFFICIAL 5000m 19:32.26 50th · 9th on team 111.7 +0.036 ★CR CSR
2023-10-14 Munson Park 5000m 18:46.1 18th · 9th on team 119.1 +0.054 ★CR CSR
2023-09-30 Lake Erie Metro Park OFFICIAL 5000m 19:08.3 9th · 6th on team 116.4 +0.055 CR CSR
2023-09-27 Saline High School 5000m 17:54 9th · 3rd on team 122.2 +0.039 ★PR ★CR SR CSR RSR
2023-09-22 Ella Sharp Park OFFICIAL 5000m 19:17.6 37th · 7th on team 114.0 +0.038 ★CR CSR
2023-09-16 Ottawa Park Golf Course 5000m 19:10.8 38th · 6th on team 106.7 -0.030 ★CR CSR
2023-09-13 Indian Creek OFFICIAL 5000m 19:32.6 39th · 9th on team 112.1 +0.039 ★CR CSR
2023-09-09 Hedges Boyer Park 5000m 19:05.5 81st · 7th on team 105.8 -0.036 PR ★CR SR CSR
2023-09-02 Forest Creason Golf Course 5000m 19:35.7 99th · 13th on team 104.8 -0.032 ★CR CSR
2023-08-18 Ford Field/EE Ice Arena(LIVONIA) OFFICIAL 5000m 19:19.5 32nd · 4th on team 116.1 +0.070 PR ★CR SR CSR RSR

2022 XC 110.1

Temperance Bedford (MI) · Grade 10

Date Meet Event Result Place Rating Difficulty PR/SR Flags
2022-10-29 Milan HS OFFICIAL 5000m 19:30.7 79th · 10th on team 114.1 +0.054 PR ★CR SR CSR RSR
2022-10-20 Hudson Mills Metropark - OFFICIAL 5000m 19:45.8 117th · 13th on team 110.4 +0.036 PR CR SR CSR
2022-10-15 Munson Park 5000m 20:08.4 33rd · 11th on team 111.2 +0.054 CR SR CSR RSR
2022-10-01 Lake Erie Metro Park OFFICIAL 5000m 20:15.7 36th · 9th on team 110.8 +0.055 CR SR CSR
2022-09-28 Pioneer HS 5000m 20:17.6 60th · 8th on team 110.8 +0.067 CR SR CSR RSR
2022-09-23 Ella Sharp Park OFFICIAL 5000m 20:54.3 153rd · 15th on team 105.9 +0.038 SR CSR
2022-08-19 Ford Field/EE Ice Arena(LIVONIA) OFFICIAL 5000m 21:11.9 130th · 10th on team 107.6 +0.070 CR SR CSR RSR

2021 XC 103.3

Temperance Bedford (MI) · Grade 9

Date Meet Event Result Place Rating Difficulty PR/SR Flags
2021-10-30 Lake Erie Metro Park OFFICIAL 5000m 21:19.8 56th · 13th on team 105.8 +0.055
2021-10-21 Hudson Mills Metropark - OFFICIAL 5000m 20:07.6 108th · 15th on team 111.3 +0.036 PR CR SR CSR RSR
2021-10-16 Munson Park 5000m 21:31 24th · 11th on team 105.6 +0.054 CR CSR
2021-10-02 Lake Erie Metro Park OFFICIAL 5000m 20:52.1 49th · 14th on team 108.9 +0.055 CR CSR
2021-09-28 Munson Park 5000m 21:37.3 88th · 10th on team 105.3 +0.054 CR CSR
2021-09-24 Ella Sharp Park OFFICIAL 5000m 20:23.6 110th · 14th on team 111.1 +0.038 PR CR SR CSR RSR
2021-09-18 Ottawa Park Golf Course 5000m 21:16.5 69th · 9th on team 98.3 -0.030 PR CR SR CSR RSR
2021-09-11 Hedges Boyer Park 5000m 21:52.1 234th · 16th on team 95.4 -0.036 CR CSR
2021-09-04 BGSU 5000m 21:19.8 141st · 24th on team 96.9 -0.038 PR ★CR SR CSR RSR
2021-08-28 Walsh Park 5000m 22:36.8 47th · 15th on team 94.9 -0.009 PR ★CR SR CSR RSR

2020 XC 119.9

Temperance Bedford (MI) · Grade 8

Date Meet Event Result Place Rating Difficulty PR/SR Flags
2020-10-14 Indian Creek OFFICIAL 3200m 13:38 27th · 23rd on team 124.5 +0.038 ★CR SR CSR RSR
2020-10-07 Hudson Mills Metropark - OFFICIAL 3218m 14:55.6 22nd · 16th on team 120.1 +0.062 CSR
2020-09-24 Indian Creek OFFICIAL 3200m 14:08 17th · 16th on team 122.5 +0.038 SR CSR RSR
2020-09-19 Indian Creek OFFICIAL 3218m 14:02 15th · 14th on team 121.3 +0.038 ★CR SR CSR RSR
2020-09-16 Rolling Hills 3218m 15:51.7 24th · 22nd on team 114.8 +0.077 ★CR SR CSR
2020-09-09 Indian Creek OFFICIAL 3200m 14:22 17th · 17th on team 117.8 +0.038 SR CSR
2020-08-29 Indian Creek OFFICIAL 3200m 14:34 14th · 14th on team 118.1 +0.038 SR CSR RSR

2019 XC 119.2

Temperance Bedford (MI) · Grade 7

Date Meet Event Result Place Rating Difficulty PR/SR Flags
2019-10-12 Munson Park 3200m 13:23.7 30th · 13th on team 126.7 +0.034 ★PR ★CR SR CSR
2019-10-09 Indian Creek OFFICIAL 3200m 13:57 33rd · 12th on team 122.4 +0.038 CR CSR
2019-10-05 Munson Park 3218m 13:17.2 23rd · 9th on team 127.2 +0.034 ★PR ★CR SR CSR
2019-09-28 Lake Erie Metro Park OFFICIAL 3218m 14:27.9 94th · 23rd on team 116.9 +0.034 CSR
2019-09-24 Hudson Mills Metropark - OFFICIAL 3218m 13:44.7 14th · 5th on team 129.1 +0.062 PR ★CR ★R SR CSR RSR
2019-09-21 Maumee Bay State Park 3200m 14:07.7 69th · 8th on team 113.0 -0.033 ★CR CSR
2019-09-14 Ottawa Park Golf Course 3200m 13:26.4 34th · 10th on team 117.9 -0.037 PR ★CR SR CSR RSR
2019-09-07 Hedges Boyer Park 2816m 14:15.6 20th · 13th on team 100.6 ★PR ★CR SR CSR RSR

2018 XC 113.0

Temperance Bedford (MI) · Grade 6

Date Meet Event Result Place Rating Difficulty PR/SR Flags
2018-10-13 Munson Park 3200m 13:45.1 35th · 15th on team 122.4 +0.034 PR CR R SR CSR RSR
2018-10-10 Saline High School 3200m 14:51.5 60th · 11th on team 114.0 +0.016 PR ★CR SR CSR
2018-10-06 Munson Park 3218m 14:22.1 41st · 14th on team 119.8 +0.034 PR CR R SR CSR RSR
2018-09-29 Lake Erie Metro Park OFFICIAL 3218m 14:23.3 83rd · 14th on team 118.4 +0.034 PR ★CR R SR CSR RSR
2018-09-25 Hudson Mills Metropark - OFFICIAL 3218m 16:20.3 59th · 13th on team 106.7 +0.062 CR CSR
2018-09-15 Ottawa Park Golf Course 3200m 14:55.8 18th · 18th on team 106.7 -0.037 PR CR SR CSR
2018-09-12 Tecumseh HS 3218m 14:27.8 42nd · 10th on team 117.1 +0.036 PR ★CR R SR CSR RSR
2018-08-30 Eastwood HS 3200m 15:38 103rd · 13th on team 98.8 -0.060 PR ★CR R SR CSR RSR

Track & Field

2025 TF 106.7

Temperance Bedford (MI) · Grade 12

Date Meet Event Result Place Rating Difficulty PR/SR Flags
2025-05-23 2025 MITCA D1 Team State hj 5' 4" -0.037
2025-05-16 MHSAA LP Region 05-1 @ Ypsi Lincoln hj NH -0.032
2025-05-08 SEC-HS Championship (Red) (EQ Approved) hj 5' 8" -0.033
2025-05-02 Knight (Boys)Relays 2025 hj 5-4 -0.043
2025-04-29 SEC-HS: Lincoln @ Bedford hj 5' 6" -0.033
2025-04-29 SEC-HS: Lincoln @ Bedford 1600m 5:22.61 6th · 5th on team 105.3 -0.033 SR
2025-04-26 2025 April Showers Invitational (EQ Approved) hj 5' 6" -0.036
2025-04-22 SEC-HS: Bedford & Pioneer @ Monroe hj 5' 6" -0.032
2025-04-19 5th Titan Varsity Invite hj 5' 8" -0.042
2025-04-15 SEC-HS: Bedford & Dexter @ Skyline hj 5' 6" -0.033
2025-04-15 SEC-HS: Bedford & Dexter @ Skyline 3200m 11:57.6 8th · 3rd on team 102.6 -0.033 SR
2025-04-07 SEC-HS: Huron & Saline @ Bedford hj 5' 4" -0.033
2025-04-07 SEC-HS: Huron & Saline @ Bedford 800m 2:14.3 10th · 3rd on team 112.3 -0.033 ★PR SR RSR
2025-03-20 '25 Lincoln Spring Indoor Classic hj 5' 6 -0.035

2024 TF 105.4

Temperance Bedford (MI) · Grade 11

Date Meet Event Result Place Rating Difficulty PR/SR Flags
2024-05-24 2024 MITCA D1 Team State hj 5' 4 -0.033
2024-05-24 2024 MITCA D1 Team State 3200m 11:27.7 33rd · 3rd on team 106.1 -0.033 ★PR SR
2024-05-17 MHSAA LP Region 05-1 @ Ypsi Lincoln hj NH -0.032
2024-05-11 Erie Mason Invitational - 59th Annual hj 5-06.00 -0.035
2024-05-11 Erie Mason Invitational - 59th Annual 800m 2:17.2 12th · 1st on team 110.7 -0.035 PR SR RSR
2024-05-09 SEC-HS: Championship (Red) hj 5' 8 -0.032
2024-05-03 Clay Eagle Invitational hj 5-04 -0.039
2024-04-30 SEC-HS: Bedford @ Lincoln hj 5' 8 -0.032
2024-04-30 SEC-HS: Bedford @ Lincoln 1600m 5:35.63 15th · 11th on team 100.3 -0.032
2024-04-30 SEC-HS: Bedford @ Lincoln 800m 2:28.91 15th · 11th on team 101.2 -0.032 SR
2024-04-25 Knight Classic 2024 JV hj 5-06 -0.043
2024-04-25 Knight Classic 2024 JV 1600m 5:14.57 5th · 1st on team 105.6 -0.043
2024-04-20 Woodhaven Warrior Classic hj 5' 4 -0.029
2024-04-20 Woodhaven Warrior Classic 1600m 5:14.29 19th · 2nd on team 108.2 -0.029
2024-04-16 SEC-HS: Skyline & Bedford at Dexter hj 5' 4 -0.036
2024-04-10 2024 Springfield Track & Field Invitational hj 5-00.00 -0.029
2024-04-09 SEC HS: Huron & Saline at Bedford hj 5' 6 -0.033
2024-04-09 SEC HS: Huron & Saline at Bedford 3200m 11:54 17th · 6th on team 102.4 -0.033 SR
2024-04-05 Whitmer Gold W 2024 hj 5-03.00 -0.040
2024-03-21 '24 SEC Invite 1600m 5:09.69 24th · 3rd on team 108.4 -0.035 SR RSR

2023 TF 106.4

Temperance Bedford (MI) · Grade 10

Date Meet Event Result Place Rating Difficulty PR/SR Flags
2023-05-19 MHSAA LP Region 05-1 @ Saline hj 5' 8 -0.042
2023-05-12 SEC-HS: Championship (Red) hj 5' 6 -0.036
2023-05-12 SEC-HS: Championship (Red) 1600m 5:05.78 31st · 3rd on team 109.5 -0.036 ★PR SR RSR
2023-05-05 Clay Eagle Invitational hj 5-04.00 -0.039
2023-05-05 Clay Eagle Invitational 1600m 5:10.55 11th · 1st on team 107.9 -0.039 PR SR RSR
2023-05-02 SEC-HS: Monroe @ Bedford hj 5' 4 -0.033
2023-05-02 SEC-HS: Monroe @ Bedford 3200m 11:53.76 7th · 4th on team 103.7 -0.033
2023-05-02 SEC-HS: Monroe @ Bedford 1600m 5:18.19 7th · 3rd on team 107.6 -0.033
2023-04-25 SEC-HS: Bedford & Lincoln @ Skyline hj 5' 6 -0.033
2023-04-25 SEC-HS: Bedford & Lincoln @ Skyline 3200m 11:30.88 8th · 2nd on team 104.4 -0.033 PR SR
2023-04-22 2023 Warrior TF Classic hj 5' 6 -0.029
2023-04-22 2023 Warrior TF Classic 1600m 5:13.99 23rd · 2nd on team 107.6 -0.029 PR SR RSR
2023-04-18 SEC-HS: Huron & Bedford @ Saline hj 5' 8 -0.042
2023-04-18 SEC-HS: Huron & Bedford @ Saline 800m 2:22 21st · 4th on team 106.2 -0.042 PR SR RSR
2023-04-18 SEC-HS: Huron & Bedford @ Saline 1600m 5:18.87 28th · 3rd on team 105.4 -0.042 PR SR
2023-04-13 Springfield Invitational hj 5' 6" -0.029
2023-04-10 SEC-HS: Pioneer & Dexter @ Bedford hj 5' 4 -0.033
2023-04-10 SEC-HS: Pioneer & Dexter @ Bedford 1600m 5:18.89 21st · 2nd on team 105.2 -0.033 PR SR RSR
2023-04-06 Whitmer Gold W Invitational hj 5' 6" -0.040
2023-03-23 '23 SEC Invite hj 5-03.00 -0.035

2022 TF 97.9

Temperance Bedford (MI) · Grade 9

Date Meet Event Result Place Rating Difficulty PR/SR Flags
2022-05-26 Dundee Beck FRESHMAN Invitational hj 5' 0 -0.022
2022-05-26 Dundee Beck FRESHMAN Invitational 3200m 13:17.4 6th · 2nd on team 92.7 -0.022
2022-05-26 Dundee Beck FRESHMAN Invitational 1600m 5:58.9 19th · 5th on team 95.4 -0.022
2022-05-18 '22 Lincoln JV Invite hj 4-08.00 -0.032
2022-05-18 '22 Lincoln JV Invite 1600m 5:39.75 42nd · 4th on team 100.0 -0.032
2022-05-04 SEC-HS: Skyline at Bedford 1600m 5:38.72 15th · 9th on team 100.2 -0.033
2022-04-28 St. Francis Freshman Invite hj 4-10.00 -0.043
2022-04-26 SEC-HS: Bedford & Monroe at Dexter hj NH -0.036
2022-04-26 SEC-HS: Bedford & Monroe at Dexter 1600m 5:36.24 30th · 8th on team 101.2 -0.036 PR SR RSR
2022-04-26 SEC-HS: Bedford & Monroe at Dexter 800m 2:31.06 19th · 6th on team 101.1 -0.036 PR SR
2022-04-21 SEC-HS: Saline & Bedford at Huron hj 5'00.00 -0.034
2022-04-21 SEC-HS: Saline & Bedford at Huron 1600m 5:41.42 32nd · 5th on team 99.7 -0.034 RSR
2022-04-21 SEC-HS: Saline & Bedford at Huron 3200m 12:38.24 15th · 4th on team 97.0 -0.034 PR SR
2022-04-12 SEC-HS: Lincoln & Pioneer at Bedford hj 5'00.00 -0.034
2022-04-07 Whitmer Freshman Invitational 3200m 12:51.9 3rd · 1st on team 94.4 -0.040 PR SR
2022-04-05 Bedford @ Whitmer Dual hj NH -0.040
2022-04-05 Bedford @ Whitmer Dual 1600m 5:50.75 8th · 5th on team 95.4 -0.040
2022-03-24 '22 SEC Conference Invite 1600m 5:40.05 42nd · 4th on team 99.5 -0.035 PR SR RSR

2021 TF 99.1

Temperance Bedford (MI) · Grade 8

Date Meet Event Result Place Rating Difficulty PR/SR Flags
2021-05-03 Lincoln MS vs Bedford MS 800m 3:05.88 6th · 5th on team 98.5 -0.032 SR
2021-04-29 Dexter MS @ Bedford MS hj 4'02.00 -0.033
2021-04-29 Dexter MS @ Bedford MS 1600m 6:44.03 9th · 6th on team 99.7 -0.033 PR SR RSR

2019 TF 99.1

Temperance Bedford (MI) · Grade 6

Date Meet Event Result Place Rating Difficulty PR/SR Flags
2019-05-15 19 Saline Middle School Hornet Relays 1600m 6:47.51 55th · 10th on team 98.6 -0.038 PR SR
2019-05-13 Lincoln MS @ Bedford MS lj 9-08.00 -0.033
2019-05-13 Lincoln MS @ Bedford MS 3200m 15:22.95 4th · 4th on team 94.0 -0.033 PR SR RSR
2019-05-13 Lincoln MS @ Bedford MS 800m 2:55.66 6th · 3rd on team 104.7 -0.033 PR SR RSR
2019-05-13 Lincoln MS @ Bedford MS 100m 15.94 7th · 4th on team -0.033 ★PR SR
2019-05-06 Ypsilanti MS @ Bedford 400m 1:15.55 5th · 4th on team -0.033 ★PR SR
2019-05-06 Ypsilanti MS @ Bedford 200m 32.7 12th · 9th on team -0.033
2019-04-22 SEC-MS: Adrian @ Bedford 200m 31.77 6th · 3rd on team -0.033 ★PR SR